COK weather

Cochin International Airport
Kochi, Kerala, India

Public forecast

Using degrees Celsius for public forecast. Weather courtesy of forecast.io.

Current aviation weather report (METAR) for Cochin International Airport

Retrieved 2019/10/19 13:30 UTC (0 seconds ago):

VOCI 191330Z 09005KT 3500 BR SCT015 BKN080 26/25 Q1009 NOSIG

Aviation forecast (TAF) for Cochin International Airport

Retrieved 2019/10/19 12:00 UTC (1 hour ago):

TAF VOCI 191100Z 1912/2018 25010KT 5000 HZ SCT015 FEW025CB BKN090 TEMPO 1912/1915 2000 TSRA RA SCT010 FEW025CB BKN090 BECMG 1917/1918 00000KT 4000 HZ TEMPO 1923/2003 2000 TSRA RA SCT010 FEW025CB BKN090 BECMG 2005/2006 25010KT 5000 HZ TEMPO 2009/2012 2000 TSRA RA SCT010 FEW025CB BKN090